createdAt,value
2023-06-08T00:00:35.762Z,99582.22
2023-06-08T00:01:20.170Z,99584.28
2023-06-08T00:02:05.310Z,99582.66
2023-06-08T00:02:56.530Z,99564.22
2023-06-08T00:03:53.346Z,99578.78
2023-06-08T00:04:44.118Z,99583.53
2023-06-08T00:05:27.068Z,99584.59
2023-06-08T00:06:19.154Z,99583.53
2023-06-08T00:07:17.272Z,99559.06
2023-06-08T00:08:10.332Z,99584.03
2023-06-08T00:09:19.333Z,99582.38
2023-06-08T00:10:03.520Z,99562.44
2023-06-08T00:10:51.194Z,99579.94
2023-06-08T00:11:36.186Z,99581.78
2023-06-08T00:12:23.668Z,99556.25
2023-06-08T00:13:08.283Z,99581.78
2023-06-08T00:13:52.753Z,99577.25
2023-06-08T00:14:41.744Z,99569.31
2023-06-08T00:15:35.169Z,99569.03
2023-06-08T00:16:31.703Z,99569.69
2023-06-08T00:17:41.140Z,99563.84
2023-06-08T00:18:34.785Z,99572.31
2023-06-08T00:19:19.778Z,99562.75
2023-06-08T00:20:12.290Z,99533.78
2023-06-08T00:20:58.477Z,99568.16
2023-06-08T00:21:49.486Z,99538.63
2023-06-08T00:22:35.732Z,99561.13
2023-06-08T00:23:17.363Z,99547.53
2023-06-08T00:23:59.035Z,99559.84
2023-06-08T00:24:45.270Z,99558.09
2023-06-08T00:25:38.845Z,99554.44
2023-06-08T00:26:27.280Z,99531.00
2023-06-08T00:27:09.660Z,99563.75
2023-06-08T00:27:55.398Z,99556.38
2023-06-08T00:28:39.990Z,99563.84
2023-06-08T00:29:42.197Z,99559.53
2023-06-08T00:30:37.481Z,99549.06
2023-06-08T00:31:42.521Z,99510.22
2023-06-08T00:32:26.948Z,99560.25
2023-06-08T00:33:14.247Z,99570.50
2023-06-08T00:33:59.888Z,99568.25
2023-06-08T00:34:52.452Z,99552.25
2023-06-08T00:35:50.393Z,99554.47
2023-06-08T00:36:40.505Z,99549.97
2023-06-08T00:37:28.720Z,99566.09
2023-06-08T00:38:23.499Z,99559.72
2023-06-08T00:39:18.802Z,99549.31
2023-06-08T00:40:10.518Z,99560.53
2023-06-08T00:40:52.181Z,99564.03
2023-06-08T00:41:34.030Z,99558.69
2023-06-08T00:42:29.650Z,99510.84
2023-06-08T00:43:15.608Z,99545.53
2023-06-08T00:44:24.107Z,99557.19
2023-06-08T00:45:15.208Z,99532.09
2023-06-08T00:45:57.568Z,99566.59
2023-06-08T00:46:51.276Z,99558.38
2023-06-08T00:47:34.403Z,99556.75
2023-06-08T00:48:34.618Z,99553.41
2023-06-08T00:49:26.245Z,99495.44
2023-06-08T00:50:14.057Z,99532.84
2023-06-08T00:51:13.196Z,99563.13
2023-06-08T00:52:20.307Z,99558.69
2023-06-08T00:53:12.179Z,99556.06
2023-06-08T00:53:58.164Z,99565.13
2023-06-08T00:55:03.806Z,99556.34
2023-06-08T00:55:54.608Z,99549.78
2023-06-08T00:56:49.605Z,99552.25
2023-06-08T00:57:44.710Z,99557.00
2023-06-08T00:58:42.059Z,99564.41
2023-06-08T00:59:29.765Z,99562.53
2023-06-08T01:00:12.698Z,99558.25
2023-06-08T01:01:13.477Z,99559.88
2023-06-08T01:02:00.090Z,99551.22
2023-06-08T01:03:22.738Z,99553.84
2023-06-08T01:04:07.918Z,99541.56
2023-06-08T01:04:55.164Z,99540.31
2023-06-08T01:06:06.052Z,99556.00
2023-06-08T01:06:53.061Z,99552.31
2023-06-08T01:08:05.910Z,99550.56
2023-06-08T01:09:16.931Z,99552.81
2023-06-08T01:10:37.596Z,99549.16
2023-06-08T01:11:24.633Z,99552.59
2023-06-08T01:12:35.696Z,99552.44
2023-06-08T01:13:40.856Z,99546.63
2023-06-08T01:14:43.063Z,99544.22
2023-06-08T01:15:32.694Z,99541.66
2023-06-08T01:16:19.820Z,99557.97
2023-06-08T01:17:26.338Z,99548.13
2023-06-08T01:18:24.494Z,99552.44
2023-06-08T01:19:36.393Z,99546.47
2023-06-08T01:20:46.857Z,99544.03
2023-06-08T01:22:04.814Z,99531.19
2023-06-08T01:23:07.612Z,99550.41
2023-06-08T01:24:06.059Z,99555.81
2023-06-08T01:24:58.895Z,99545.19
2023-06-08T01:25:44.318Z,99550.75
2023-06-08T01:26:32.493Z,99556.69
2023-06-08T01:27:14.416Z,99531.31
2023-06-08T01:28:23.069Z,99559.97
2023-06-08T01:29:16.419Z,99553.78
2023-06-08T01:30:03.889Z,99554.19
2023-06-08T01:30:51.855Z,99544.16
2023-06-08T01:31:52.968Z,99556.84
2023-06-08T01:32:40.151Z,99539.09
2023-06-08T01:33:24.292Z,99544.81
2023-06-08T01:34:37.248Z,99563.22
2023-06-08T01:35:32.478Z,99561.00
2023-06-08T01:38:05.853Z,99558.97
2023-06-08T01:39:18.000Z,99554.91
2023-06-08T01:40:40.297Z,99542.72
2023-06-08T01:41:40.491Z,99565.22
2023-06-08T01:42:24.994Z,99553.94
2023-06-08T01:43:15.876Z,99552.50
2023-06-08T01:44:05.801Z,99553.31
2023-06-08T01:44:57.494Z,99550.88
2023-06-08T01:45:44.868Z,99548.06
2023-06-08T01:46:39.622Z,99551.09
2023-06-08T01:47:38.913Z,99558.28
2023-06-08T01:48:25.134Z,99550.34
2023-06-08T01:49:13.235Z,99552.94
2023-06-08T01:50:07.751Z,99541.94
2023-06-08T01:51:06.692Z,99529.19
2023-06-08T01:51:59.409Z,99546.97
2023-06-08T01:52:51.859Z,99546.22
2023-06-08T01:53:51.581Z,99546.47
2023-06-08T01:54:37.334Z,99545.31
2023-06-08T01:55:36.871Z,99546.97
2023-06-08T01:56:32.734Z,99541.22
2023-06-08T01:57:38.694Z,99523.88
2023-06-08T01:58:32.029Z,99535.25
2023-06-08T01:59:18.259Z,99526.88
2023-06-08T02:00:15.078Z,99541.59
2023-06-08T02:00:56.945Z,99542.41
2023-06-08T02:01:41.685Z,99538.09
2023-06-08T02:02:27.569Z,99525.84
2023-06-08T02:03:09.484Z,99518.84
2023-06-08T02:04:03.165Z,99536.47
2023-06-08T02:04:48.033Z,99537.50
2023-06-08T02:05:36.259Z,99517.47
2023-06-08T02:06:18.417Z,99531.13
2023-06-08T02:07:00.407Z,99532.78
2023-06-08T02:07:43.719Z,99522.34
2023-06-08T02:08:29.831Z,99518.84
2023-06-08T02:09:14.475Z,99530.69
2023-06-08T02:10:04.216Z,99535.19
2023-06-08T02:10:51.654Z,99536.69
2023-06-08T02:11:37.089Z,99525.63
2023-06-08T02:12:28.870Z,99534.22
2023-06-08T02:13:19.707Z,99536.47
2023-06-08T02:14:04.370Z,99524.81
2023-06-08T02:14:54.180Z,99519.91
2023-06-08T02:15:43.979Z,99523.84
2023-06-08T02:16:25.894Z,99536.16
2023-06-08T02:17:17.510Z,99541.50
2023-06-08T02:18:08.955Z,99531.94
2023-06-08T02:18:57.944Z,99541.13
2023-06-08T02:19:49.053Z,99545.06
2023-06-08T02:20:36.593Z,99542.59
2023-06-08T02:21:19.267Z,99529.50
2023-06-08T02:22:01.369Z,99544.00
2023-06-08T02:22:43.175Z,99516.03
2023-06-08T02:23:30.222Z,99541.78
2023-06-08T02:24:15.589Z,99541.56
2023-06-08T02:25:04.047Z,99529.09
2023-06-08T02:25:54.057Z,99527.44
2023-06-08T02:26:40.771Z,99534.03
2023-06-08T02:27:22.887Z,99538.13
2023-06-08T02:28:25.977Z,99539.16
2023-06-08T02:29:29.485Z,99545.09
2023-06-08T02:30:18.458Z,99543.66
2023-06-08T02:31:13.666Z,99546.78
2023-06-08T02:31:57.057Z,99553.72
2023-06-08T02:32:47.089Z,99551.06
2023-06-08T02:33:40.710Z,99537.78
2023-06-08T02:34:33.037Z,99531.25
2023-06-08T02:35:14.885Z,99546.38
2023-06-08T02:35:59.288Z,99558.28
2023-06-08T02:36:41.079Z,99547.63
2023-06-08T02:37:24.940Z,99556.84
2023-06-08T02:38:23.332Z,99548.44
2023-06-08T02:39:11.654Z,99545.13
2023-06-08T02:40:04.854Z,99538.38
2023-06-08T02:40:55.889Z,99542.47
2023-06-08T02:41:40.617Z,99556.84
2023-06-08T02:42:30.632Z,99544.53
2023-06-08T02:43:24.108Z,99557.44
2023-06-08T02:44:12.795Z,99537.56
2023-06-08T02:44:56.442Z,99554.53
2023-06-08T02:45:45.816Z,99538.81
2023-06-08T02:46:32.166Z,99546.13
2023-06-08T02:47:15.346Z,99554.66
2023-06-08T02:48:06.134Z,99555.72
2023-06-08T02:48:53.601Z,99536.44
2023-06-08T02:49:37.357Z,99542.59
2023-06-08T02:50:26.334Z,99513.78
2023-06-08T02:51:18.007Z,99542.38
2023-06-08T02:52:19.665Z,99546.66
2023-06-08T02:53:09.978Z,99549.09
2023-06-08T02:54:05.621Z,99540.91
2023-06-08T02:54:52.981Z,99546.41
2023-06-08T02:55:38.833Z,99535.56
2023-06-08T02:56:29.238Z,99548.66
2023-06-08T02:57:25.546Z,99539.13
2023-06-08T02:58:26.392Z,99541.38
2023-06-08T02:59:13.386Z,99551.19
2023-06-08T02:59:55.665Z,99548.16
2023-06-08T03:00:39.481Z,99552.66
2023-06-08T03:01:31.909Z,99556.78
2023-06-08T03:02:23.245Z,99550.63
2023-06-08T03:03:05.495Z,99564.78
2023-06-08T03:03:50.016Z,99556.56
2023-06-08T03:04:36.239Z,99552.88
2023-06-08T03:05:25.415Z,99541.59
2023-06-08T03:06:20.379Z,99547.25
2023-06-08T03:07:14.053Z,99525.59
2023-06-08T03:08:01.384Z,99540.28
2023-06-08T03:08:51.409Z,99528.81
2023-06-08T03:09:40.460Z,99528.81
2023-06-08T03:10:33.985Z,99546.81
2023-06-08T03:11:31.457Z,99534.25
2023-06-08T03:12:21.775Z,99528.81
2023-06-08T03:13:18.373Z,99529.28
2023-06-08T03:14:07.738Z,99548.78
2023-06-08T03:14:56.139Z,99551.28
2023-06-08T03:15:43.815Z,99544.13
2023-06-08T03:16:27.520Z,99554.16
2023-06-08T03:17:25.525Z,99544.38
2023-06-08T03:18:07.542Z,99538.81
2023-06-08T03:19:02.120Z,99538.38
2023-06-08T03:20:11.636Z,99532.69
2023-06-08T03:21:04.213Z,99540.22
2023-06-08T03:21:47.373Z,99552.47
2023-06-08T03:22:35.727Z,99539.41
2023-06-08T03:23:43.224Z,99547.13
2023-06-08T03:24:53.348Z,99533.03
2023-06-08T03:25:44.058Z,99520.97
2023-06-08T03:26:30.842Z,99543.50
2023-06-08T03:27:13.817Z,99528.13
2023-06-08T03:27:58.576Z,99466.00
2023-06-08T03:28:54.204Z,99538.13
2023-06-08T03:29:46.879Z,99542.81
2023-06-08T03:30:39.442Z,99528.69
2023-06-08T03:31:26.810Z,99544.06
2023-06-08T03:32:15.564Z,99547.13
2023-06-08T03:33:01.258Z,99514.22
2023-06-08T03:33:57.119Z,99529.56
2023-06-08T03:34:45.886Z,99542.22
2023-06-08T03:35:33.269Z,99541.81
2023-06-08T03:36:41.261Z,99542.59
2023-06-08T03:37:41.137Z,99530.94
2023-06-08T03:38:29.218Z,99528.66
2023-06-08T03:39:19.595Z,99520.47
2023-06-08T03:40:17.752Z,99541.78
2023-06-08T03:41:12.338Z,99532.56
2023-06-08T03:42:02.425Z,99534.81
2023-06-08T03:42:55.164Z,99534.63
2023-06-08T03:43:42.677Z,99539.75
2023-06-08T03:44:32.126Z,99549.00
2023-06-08T03:45:29.638Z,99530.59
2023-06-08T03:46:20.229Z,99540.66
2023-06-08T03:47:13.369Z,99535.16
2023-06-08T03:48:03.143Z,99559.13
2023-06-08T03:48:52.345Z,99559.53
2023-06-08T03:49:34.754Z,99540.13
2023-06-08T03:50:21.271Z,99554.03
2023-06-08T03:51:08.727Z,99557.72
2023-06-08T03:52:07.184Z,99560.59
2023-06-08T03:52:56.290Z,99524.81
2023-06-08T03:53:41.130Z,99557.91
2023-06-08T03:54:28.577Z,99554.03
2023-06-08T03:55:13.578Z,99554.81
2023-06-08T03:55:58.589Z,99551.56
2023-06-08T03:56:40.961Z,99558.47
2023-06-08T03:57:32.116Z,99559.06
2023-06-08T03:58:15.038Z,99557.38
2023-06-08T03:59:12.045Z,99543.50
2023-06-08T03:59:54.186Z,99527.28
2023-06-08T04:00:51.322Z,99551.19
2023-06-08T04:01:39.683Z,99538.50
2023-06-08T04:02:24.114Z,99540.16
2023-06-08T04:03:19.088Z,99546.25
2023-06-08T04:04:04.612Z,99559.09
2023-06-08T04:04:49.444Z,99552.38
2023-06-08T04:05:35.664Z,99556.06
2023-06-08T04:06:39.621Z,99540.50
2023-06-08T04:07:35.010Z,99551.09
2023-06-08T04:08:22.964Z,99542.13
2023-06-08T04:09:28.686Z,99562.16
2023-06-08T04:10:13.700Z,99550.34
2023-06-08T04:10:56.561Z,99555.03
2023-06-08T04:11:48.174Z,99566.06
2023-06-08T04:12:30.663Z,99569.75
2023-06-08T04:13:19.601Z,99556.41
2023-06-08T04:14:15.814Z,99560.72
2023-06-08T04:15:21.094Z,99549.31
2023-06-08T04:16:18.380Z,99558.28
2023-06-08T04:17:08.769Z,99536.59
2023-06-08T04:18:28.340Z,99552.56
2023-06-08T04:19:11.228Z,99545.00
2023-06-08T04:19:59.685Z,99552.16
2023-06-08T04:20:48.409Z,99555.59
2023-06-08T04:21:34.354Z,99555.38
2023-06-08T04:22:30.098Z,99530.22
2023-06-08T04:23:38.138Z,99527.13
2023-06-08T04:24:25.085Z,99553.09
2023-06-08T04:25:25.664Z,99523.22
2023-06-08T04:26:10.976Z,99545.72
2023-06-08T04:26:58.571Z,99535.91
2023-06-08T04:27:55.573Z,99525.94
2023-06-08T04:29:48.868Z,99555.19
2023-06-08T04:30:45.479Z,99560.16
2023-06-08T04:31:35.732Z,99556.22
2023-06-08T04:32:24.428Z,99546.75
2023-06-08T04:33:15.696Z,99540.19
2023-06-08T04:34:10.911Z,99553.09
2023-06-08T04:35:12.280Z,99553.88
2023-06-08T04:35:57.896Z,99557.00
2023-06-08T04:36:56.602Z,99566.03
2023-06-08T04:37:48.271Z,99546.16
2023-06-08T04:38:32.591Z,99554.97
2023-06-08T04:39:20.831Z,99545.53
2023-06-08T04:40:06.721Z,99563.16
2023-06-08T04:40:56.272Z,99558.63
2023-06-08T04:41:52.876Z,99554.94
2023-06-08T04:42:37.160Z,99562.53
2023-06-08T04:43:40.423Z,99542.06
2023-06-08T04:44:33.008Z,99556.59
2023-06-08T04:45:37.103Z,99552.69
2023-06-08T04:46:19.126Z,99558.78
2023-06-08T04:47:20.364Z,99545.72
2023-06-08T04:48:02.839Z,99562.28
2023-06-08T04:48:47.016Z,99548.53
2023-06-08T04:49:34.196Z,99562.22
2023-06-08T04:50:23.220Z,99564.44
2023-06-08T04:51:30.850Z,99548.44
2023-06-08T04:52:15.740Z,99559.81
2023-06-08T04:53:00.079Z,99543.44
2023-06-08T04:53:43.643Z,99531.94
2023-06-08T04:54:31.239Z,99543.31
2023-06-08T04:55:17.550Z,99549.78
2023-06-08T04:56:19.931Z,99541.91
2023-06-08T04:57:10.167Z,99540.06
2023-06-08T04:58:05.750Z,99549.56
2023-06-08T04:58:54.872Z,99554.09
2023-06-08T04:59:42.044Z,99554.81
2023-06-08T05:00:28.463Z,99544.50
2023-06-08T05:01:22.942Z,99531.00
2023-06-08T05:02:25.433Z,99553.63
2023-06-08T05:03:16.497Z,99547.56
2023-06-08T05:04:02.595Z,99556.13
2023-06-08T05:04:53.532Z,99554.53
2023-06-08T05:05:56.285Z,99536.13
2023-06-08T05:06:38.486Z,99556.91
2023-06-08T05:07:20.291Z,99558.16
2023-06-08T05:08:18.122Z,99555.75
2023-06-08T05:09:05.887Z,99554.22
2023-06-08T05:09:55.188Z,99562.81
2023-06-08T05:10:52.091Z,99561.56
2023-06-08T05:11:42.333Z,99545.69
2023-06-08T05:12:26.345Z,99549.28
2023-06-08T05:13:13.033Z,99562.19
2023-06-08T05:14:12.393Z,99565.16
2023-06-08T05:15:00.723Z,99556.16
2023-06-08T05:15:51.359Z,99560.66
2023-06-08T05:16:46.958Z,99560.03
2023-06-08T05:17:28.737Z,99565.56
2023-06-08T05:18:15.531Z,99568.97
2023-06-08T05:18:59.211Z,99571.25
2023-06-08T05:20:03.873Z,99550.34
2023-06-08T05:20:48.746Z,99564.28
2023-06-08T05:21:30.569Z,99567.38
2023-06-08T05:22:17.053Z,99566.66
2023-06-08T05:23:05.703Z,99565.66
2023-06-08T05:23:54.027Z,99570.72
2023-06-08T05:24:40.899Z,99561.75
2023-06-08T05:25:30.721Z,99566.22
2023-06-08T05:26:19.445Z,99562.56
2023-06-08T05:27:19.989Z,99561.91
2023-06-08T05:28:01.793Z,99561.97
2023-06-08T05:28:43.605Z,99564.75
2023-06-08T05:29:31.541Z,99568.88
2023-06-08T05:30:25.654Z,99539.94
2023-06-08T05:31:12.965Z,99563.94
2023-06-08T05:32:06.044Z,99563.41
2023-06-08T05:32:50.515Z,99565.06
2023-06-08T05:33:34.863Z,99567.25
2023-06-08T05:34:20.754Z,99570.19
2023-06-08T05:35:18.564Z,99558.31
2023-06-08T05:36:13.907Z,99548.50
2023-06-08T05:37:03.549Z,99561.31
2023-06-08T05:38:12.722Z,99553.25
2023-06-08T05:38:56.856Z,99559.75
2023-06-08T05:39:44.324Z,99570.59
2023-06-08T05:40:26.093Z,99562.25
2023-06-08T05:41:10.936Z,99550.31
2023-06-08T05:42:14.487Z,99572.28
2023-06-08T05:43:14.956Z,99568.53
2023-06-08T05:43:59.832Z,99567.97
2023-06-08T05:44:53.687Z,99569.13
2023-06-08T05:45:36.852Z,99579.00
2023-06-08T05:46:21.693Z,99575.75
2023-06-08T05:47:06.406Z,99568.38
2023-06-08T05:47:58.889Z,99574.75
2023-06-08T05:48:51.761Z,99567.53
2023-06-08T05:49:37.478Z,99569.13
2023-06-08T05:50:21.817Z,99575.06
2023-06-08T05:51:26.585Z,99561.56
2023-06-08T05:52:08.590Z,99558.63
2023-06-08T05:53:02.911Z,99567.31
2023-06-08T05:53:46.906Z,99563.00
2023-06-08T05:54:35.196Z,99546.50
2023-06-08T05:55:22.718Z,99566.06
2023-06-08T05:56:34.166Z,99568.75
2023-06-08T05:57:38.284Z,99553.56
2023-06-08T05:58:48.623Z,99562.16
2023-06-08T05:59:47.846Z,99566.44
2023-06-08T06:00:38.954Z,99562.16
2023-06-08T06:01:35.831Z,99557.31
2023-06-08T06:02:39.763Z,99570.50
2023-06-08T06:03:28.745Z,99564.31
2023-06-08T06:04:35.155Z,99538.69
2023-06-08T06:05:24.510Z,99554.72
2023-06-08T06:06:12.604Z,99563.19
2023-06-08T06:07:14.716Z,99552.13
2023-06-08T06:08:03.245Z,99559.75
2023-06-08T06:08:53.104Z,99557.59
2023-06-08T06:09:42.919Z,99549.19
2023-06-08T06:10:32.135Z,99556.50
2023-06-08T06:11:16.772Z,99569.06
2023-06-08T06:12:03.022Z,99570.75
2023-06-08T06:12:48.366Z,99566.75
2023-06-08T06:13:37.440Z,99543.50
2023-06-08T06:14:22.848Z,99564.94
2023-06-08T06:15:16.655Z,99565.28
2023-06-08T06:16:24.340Z,99571.28
2023-06-08T06:17:18.904Z,99566.22
2023-06-08T06:18:06.741Z,99568.72
2023-06-08T06:18:56.586Z,99559.66
2023-06-08T06:19:40.554Z,99562.41
2023-06-08T06:20:30.818Z,99576.72
2023-06-08T06:21:14.441Z,99564.16
2023-06-08T06:22:14.706Z,99565.00
2023-06-08T06:23:15.865Z,99567.53
2023-06-08T06:25:05.023Z,99570.88
2023-06-08T06:26:05.521Z,99565.59
2023-06-08T06:26:53.419Z,99550.75
2023-06-08T06:27:42.026Z,99565.94
2023-06-08T06:28:47.242Z,99543.03
2023-06-08T06:29:31.969Z,99550.09
2023-06-08T06:30:19.742Z,99562.28
2023-06-08T06:31:09.303Z,99541.75
2023-06-08T06:31:53.161Z,99557.50
2023-06-08T06:32:46.852Z,99560.19
2023-06-08T06:33:28.667Z,99564.31
2023-06-08T06:34:22.967Z,99553.22
2023-06-08T06:35:25.123Z,99550.84
2023-06-08T06:36:12.654Z,99566.06
2023-06-08T06:37:15.547Z,99571.25
2023-06-08T06:38:03.563Z,99571.56
2023-06-08T06:38:55.481Z,99561.03
2023-06-08T06:39:37.162Z,99573.19
2023-06-08T06:40:21.809Z,99567.88
2023-06-08T06:41:09.930Z,99570.81
2023-06-08T06:41:57.348Z,99577.31
2023-06-08T06:43:04.886Z,99575.13
2023-06-08T06:44:11.308Z,99567.88
2023-06-08T06:44:56.485Z,99569.75
2023-06-08T06:45:41.320Z,99572.53
2023-06-08T06:46:26.063Z,99575.00
2023-06-08T06:47:27.893Z,99560.69
2023-06-08T06:48:10.996Z,99548.47
2023-06-08T06:49:08.800Z,99586.69
2023-06-08T06:50:02.284Z,99581.00
2023-06-08T06:50:58.660Z,99579.66
2023-06-08T06:51:46.687Z,99581.31
2023-06-08T06:52:37.256Z,99585.09
2023-06-08T06:53:21.462Z,99557.81
2023-06-08T06:54:10.395Z,99578.91
2023-06-08T06:54:54.797Z,99583.00
2023-06-08T06:55:39.541Z,99577.03
2023-06-08T06:56:21.709Z,99583.50
2023-06-08T06:57:03.570Z,99576.25
2023-06-08T06:57:50.986Z,99578.97
2023-06-08T06:58:53.988Z,99575.22
2023-06-08T06:59:35.766Z,99574.97
2023-06-08T07:00:17.842Z,99577.97
2023-06-08T07:01:15.900Z,99566.09
2023-06-08T07:03:05.659Z,99575.34
2023-06-08T07:04:11.082Z,99583.22
2023-06-08T07:04:57.573Z,99577.59
2023-06-08T07:05:42.800Z,99583.59
2023-06-08T07:06:35.126Z,99585.50
2023-06-08T07:07:16.930Z,99580.13
2023-06-08T07:07:58.633Z,99589.59
2023-06-08T07:08:42.084Z,99586.09
2023-06-08T07:09:24.965Z,99579.09
2023-06-08T07:10:10.204Z,99590.97
2023-06-08T07:11:12.117Z,99579.09
2023-06-08T07:12:14.260Z,99575.03
2023-06-08T07:12:58.223Z,99586.66
2023-06-08T07:13:44.073Z,99587.75
2023-06-08T07:14:30.195Z,99589.94
2023-06-08T07:15:13.288Z,99587.19
2023-06-08T07:17:00.708Z,99581.56
2023-06-08T07:17:43.939Z,99588.59
2023-06-08T07:18:29.612Z,99591.34
2023-06-08T07:19:15.051Z,99588.94
2023-06-08T07:20:02.167Z,99586.50
2023-06-08T07:20:51.632Z,99596.75
2023-06-08T07:21:55.425Z,99585.69
2023-06-08T07:22:48.568Z,99598.94
2023-06-08T07:24:27.874Z,99582.69
2023-06-08T07:25:43.534Z,99590.00
2023-06-08T07:26:29.224Z,99598.66
2023-06-08T07:27:20.178Z,99596.22
2023-06-08T07:28:04.922Z,99594.88
2023-06-08T07:29:23.348Z,99590.81
2023-06-08T07:30:15.495Z,99601.63
2023-06-08T07:31:30.412Z,99594.59
2023-06-08T07:32:30.075Z,99593.78
2023-06-08T07:33:15.307Z,99604.59
2023-06-08T07:34:03.570Z,99611.63
2023-06-08T07:34:49.830Z,99606.78
2023-06-08T07:35:35.482Z,99595.69
2023-06-08T07:36:25.378Z,99596.75
2023-06-08T07:37:17.117Z,99605.41
2023-06-08T07:38:01.275Z,99583.50
2023-06-08T07:38:43.118Z,99600.53
2023-06-08T07:39:27.825Z,99592.97
2023-06-08T07:40:19.686Z,99601.91
2023-06-08T07:41:06.797Z,99605.41
2023-06-08T07:42:25.840Z,99604.06
2023-06-08T07:43:32.850Z,99591.91
2023-06-08T07:44:14.582Z,99606.22
2023-06-08T07:44:58.906Z,99587.00
2023-06-08T07:45:45.093Z,99610.00
2023-06-08T07:46:38.146Z,99600.78
2023-06-08T07:47:24.780Z,99596.16
2023-06-08T07:48:09.713Z,99599.91
2023-06-08T07:48:56.767Z,99605.22
2023-06-08T07:49:51.521Z,99591.94
2023-06-08T07:50:43.153Z,99598.38
2023-06-08T07:51:29.269Z,99607.25
2023-06-08T07:52:13.445Z,99606.41
2023-06-08T07:52:55.157Z,99610.22
2023-06-08T07:53:45.092Z,99608.44
2023-06-08T07:54:42.237Z,99605.75
2023-06-08T07:55:30.010Z,99613.34
2023-06-08T07:56:11.756Z,99608.00
2023-06-08T07:56:56.380Z,99600.41
2023-06-08T07:57:41.912Z,99612.03
2023-06-08T07:58:27.864Z,99608.47
2023-06-08T07:59:10.491Z,99606.00
2023-06-08T07:59:59.348Z,99593.00
2023-06-08T08:00:41.622Z,99594.75
2023-06-08T08:01:30.440Z,99617.94
2023-06-08T08:02:17.966Z,99617.03
2023-06-08T08:03:11.660Z,99613.72
2023-06-08T08:04:15.059Z,99615.03
2023-06-08T08:05:03.678Z,99616.88
2023-06-08T08:05:49.325Z,99612.81
2023-06-08T08:06:51.562Z,99602.97
2023-06-08T08:07:47.479Z,99609.88
2023-06-08T08:08:36.961Z,99593.84
2023-06-08T08:09:23.495Z,99608.31
2023-06-08T08:10:19.550Z,99609.63
2023-06-08T08:11:06.488Z,99607.31
2023-06-08T08:11:56.577Z,99603.22
2023-06-08T08:12:41.102Z,99596.50
2023-06-08T08:13:33.303Z,99604.06
2023-06-08T08:14:20.966Z,99610.06
2023-06-08T08:15:18.684Z,99605.81
2023-06-08T08:16:06.131Z,99606.31
2023-06-08T08:16:49.941Z,99585.19
2023-06-08T08:17:38.396Z,99601.00
2023-06-08T08:18:21.970Z,99607.16
2023-06-08T08:19:08.115Z,99603.22
2023-06-08T08:19:53.751Z,99600.41
2023-06-08T08:20:52.366Z,99604.75
2023-06-08T08:21:42.864Z,99604.88
2023-06-08T08:22:27.983Z,99601.47
2023-06-08T08:23:18.820Z,99604.59
2023-06-08T08:24:04.473Z,99599.44
2023-06-08T08:25:00.030Z,99601.13
2023-06-08T08:25:59.133Z,99603.25
2023-06-08T08:26:59.663Z,99607.75
2023-06-08T08:27:56.418Z,99593.53
2023-06-08T08:28:46.068Z,99599.78
2023-06-08T08:29:36.344Z,99606.38
2023-06-08T08:30:21.116Z,99599.16
2023-06-08T08:31:22.240Z,99603.22
2023-06-08T08:32:18.219Z,99609.16
2023-06-08T08:33:00.023Z,99593.00
2023-06-08T08:33:48.830Z,99603.50
2023-06-08T08:34:41.184Z,99611.31
2023-06-08T08:35:34.706Z,99600.78
2023-06-08T08:37:18.919Z,99603.34
2023-06-08T08:38:10.721Z,99609.25
2023-06-08T08:38:57.260Z,99595.19
2023-06-08T08:39:41.744Z,99595.34
2023-06-08T08:40:26.195Z,99601.34
2023-06-08T08:41:18.302Z,99612.13
2023-06-08T08:42:15.788Z,99591.19
2023-06-08T08:43:25.060Z,99603.34
2023-06-08T08:44:09.863Z,99609.16
2023-06-08T08:45:03.610Z,99606.22
2023-06-08T08:46:00.029Z,99597.84
2023-06-08T08:46:54.285Z,99599.28
2023-06-08T08:47:45.512Z,99601.03
2023-06-08T08:48:30.948Z,99605.38
2023-06-08T08:49:22.705Z,99607.44
2023-06-08T08:50:18.920Z,99576.94
2023-06-08T08:51:10.327Z,99605.63
2023-06-08T08:51:53.929Z,99581.44
2023-06-08T08:52:57.950Z,99601.25
2023-06-08T08:54:00.411Z,99598.25
2023-06-08T08:54:58.760Z,99585.75
2023-06-08T08:55:44.487Z,99600.41
2023-06-08T08:56:47.330Z,99599.88
2023-06-08T08:57:35.058Z,99597.84
2023-06-08T08:58:23.223Z,99601.31
2023-06-08T08:59:10.495Z,99598.41
2023-06-08T08:59:57.043Z,99602.34
2023-06-08T09:01:00.287Z,99608.06
2023-06-08T09:01:48.295Z,99604.22
2023-06-08T09:02:38.350Z,99604.59
2023-06-08T09:03:34.298Z,99605.19
2023-06-08T09:04:25.349Z,99602.16
2023-06-08T09:05:19.179Z,99598.75
2023-06-08T09:06:05.899Z,99600.38
2023-06-08T09:07:10.797Z,99592.72
2023-06-08T09:08:00.484Z,99594.91
2023-06-08T09:08:54.706Z,99591.78
2023-06-08T09:09:41.988Z,99596.94
2023-06-08T09:10:42.322Z,99598.75
2023-06-08T09:11:32.621Z,99580.06
2023-06-08T09:12:16.325Z,99598.31
2023-06-08T09:13:02.681Z,99598.13
2023-06-08T09:13:49.258Z,99584.13
2023-06-08T09:14:39.844Z,99587.31
2023-06-08T09:15:35.122Z,99590.50
2023-06-08T09:17:49.940Z,99593.19
2023-06-08T09:18:42.002Z,99587.84
2023-06-08T09:19:27.300Z,99586.50
2023-06-08T09:20:17.211Z,99582.69
2023-06-08T09:21:23.650Z,99590.88
2023-06-08T09:22:10.649Z,99588.16
2023-06-08T09:22:57.451Z,99576.88
2023-06-08T09:23:39.136Z,99589.16
2023-06-08T09:24:25.872Z,99588.44
2023-06-08T09:25:12.509Z,99570.75
2023-06-08T09:25:58.026Z,99574.56
2023-06-08T09:26:53.585Z,99593.09
2023-06-08T09:27:39.766Z,99565.53
2023-06-08T09:28:33.554Z,99588.34
2023-06-08T09:29:55.024Z,99585.22
2023-06-08T09:31:00.175Z,99587.94
2023-06-08T09:31:53.685Z,99585.41
2023-06-08T09:32:35.744Z,99569.38
2023-06-08T09:33:30.981Z,99584.69
2023-06-08T09:34:33.426Z,99561.28
2023-06-08T09:35:30.745Z,99571.38
2023-06-08T09:36:19.424Z,99579.34
2023-06-08T09:37:15.382Z,99569.88
2023-06-08T09:38:00.154Z,99551.81
2023-06-08T09:38:44.978Z,99580.88
2023-06-08T09:39:31.845Z,99570.19
2023-06-08T09:40:35.272Z,99582.41
2023-06-08T09:41:25.260Z,99565.34
2023-06-08T09:42:07.596Z,99584.09
2023-06-08T09:42:59.561Z,99577.03
2023-06-08T09:43:53.878Z,99577.84
2023-06-08T09:44:41.016Z,99566.34
2023-06-08T09:45:22.795Z,99585.44
2023-06-08T09:46:07.796Z,99559.06
2023-06-08T09:48:14.765Z,99577.75
2023-06-08T09:49:23.544Z,99553.34
2023-06-08T09:50:09.837Z,99566.75
2023-06-08T09:51:03.335Z,99566.66
2023-06-08T09:52:03.682Z,99563.63
2023-06-08T09:52:57.056Z,99566.25
2023-06-08T09:53:55.771Z,99567.28
2023-06-08T09:54:49.223Z,99562.31
2023-06-08T09:55:31.097Z,99560.31
2023-06-08T09:56:27.155Z,99561.28
2023-06-08T09:57:10.530Z,99566.34
2023-06-08T09:57:55.120Z,99553.91
2023-06-08T09:58:41.948Z,99564.84
2023-06-08T09:59:38.050Z,99553.94
2023-06-08T10:00:32.359Z,99558.75
2023-06-08T10:01:38.968Z,99557.41
2023-06-08T10:02:29.347Z,99548.31
2023-06-08T10:03:57.133Z,99560.13
2023-06-08T10:04:47.557Z,99560.78
2023-06-08T10:05:45.039Z,99553.47
2023-06-08T10:06:31.397Z,99558.75
2023-06-08T10:07:25.891Z,99552.03
2023-06-08T10:08:22.554Z,99547.72
2023-06-08T10:09:12.977Z,99553.53
2023-06-08T10:10:11.256Z,99546.50
2023-06-08T10:11:02.872Z,99553.03
2023-06-08T10:12:10.388Z,99545.91
2023-06-08T10:12:59.612Z,99555.75
2023-06-08T10:13:47.823Z,99530.44
2023-06-08T10:14:37.668Z,99550.09